Pagina principală
METAR-TAF:

METAR-TAF

Aeroporturi :

Yacuíba, Bolivia

Latitudine: 21-57S, longitudine: 063-39W, elevație: 645 m

Observații meteo curente

Raportul a fost făcut în urmă cu 15 ore și 9 de minute, la 20:00 UTC
Vânt 5 kt de la Nord/Nord-est
Temperatură 27°C
Umiditate 58%
Presiune 1018 hPa
Vizibilitate de 10 km sau mai mult

METAR: SLYA 172000Z 03005KT 9999 NSC 27/18 Q1018

Ora: 07:09 (11:09 UTC)


TAF: lipsă

Observații și prognoze meteo pentru peste 4.000 de aeroporturi (rapoarte METAR și TAF).

Stațiile disponibile sunt reprezentate pe hartă prin puncte galbene și roșii.

Țineți indicatorul mouse-ului pe punctul dorit pentru a vedea denumirea stației.

Apoi, faceți clic pentru a vedea observațiile și prognozele meteorologice.

Pentru a schimba harta: Pentru mărire, faceți clic pe butoanele verzi cu cruce neagră; pentru micșorare, pe butonul verde cu o liniuță; pentru hărți învecinate, pe săgețile verzi.


METAR-TAF: